Time,TemperatureF,DewpointF,PressureIn,WindDirection,WindDirectionDegrees,WindSpeedMPH,WindSpeedGustMPH,Humidity,HourlyPrecipIn,Conditions,Clouds,dailyrainin,SolarRadiationWatts/m^2,SoftwareType,DateUTC
2013-03-21 00:06:00,33.4,30.2,29.80,SSE,161,1.0,5.0,88,0.00,CLR,,0.00,0.0,WeatherDisplay:10.37,2013-03-21 00:06:00,
2013-03-21 00:11:00,33.4,30.2,29.80,SSE,161,1.0,4.0,88,0.00,CLR,,0.00,0.0,WeatherDisplay:10.37,2013-03-21 00:11:00,
2013-03-21 00:16:00,33.5,30.6,29.80,SSE,161,2.0,4.0,89,0.00,CLR,,0.00,0.0,WeatherDisplay:10.37,2013-03-21 00:16:00,
2013-03-21 00:21:00,33.6,30.7,29.80,SSE,161,2.0,5.0,89,0.00,CLR,,0.00,0.0,WeatherDisplay:10.37,2013-03-21 00:21:00,
2013-03-21 00:31:00,33.7,30.8,29.80,SSE,161,0.0,2.0,89,0.00,CLR,,0.00,0.0,WeatherDisplay:10.37,2013-03-21 00:31:00,
2013-03-21 00:41:00,33.7,31.1,29.79,SSE,161,1.0,6.0,90,0.00,CLR,,0.00,0.0,WeatherDisplay:10.37,2013-03-21 00:41:00,
2013-03-21 00:46:00,33.9,31.3,29.79,SSE,161,1.0,6.0,90,0.00,CLR,,0.00,0.0,WeatherDisplay:10.37,2013-03-21 00:46:00,
2013-03-21 00:51:00,34.1,31.5,29.79,SSE,159,5.0,8.0,90,0.00,CLR,,0.00,0.0,WeatherDisplay:10.37,2013-03-21 00:51:00,
2013-03-21 01:01:00,34.2,31.6,29.79,SSE,157,2.0,5.0,90,0.00,CLR,,0.00,0.0,WeatherDisplay:10.37,2013-03-21 01:01:00,
2013-03-21 01:11:00,34.4,31.5,29.79,ESE,114,3.0,8.0,89,0.00,CLR,,0.00,0.0,WeatherDisplay:10.37,2013-03-21 01:11:00,
2013-03-21 01:16:00,34.4,31.8,29.79,ESE,105,2.0,7.0,90,0.00,CLR,,0.00,0.0,WeatherDisplay:10.37,2013-03-21 01:16:00,
2013-03-21 01:26:00,34.5,31.6,29.79,ESE,102,2.0,7.0,89,0.00,CLR,,0.00,0.0,WeatherDisplay:10.37,2013-03-21 01:26:00,
2013-03-21 01:31:00,34.4,31.5,29.79,ESE,102,3.0,8.0,89,0.00,CLR,,0.00,0.0,WeatherDisplay:10.37,2013-03-21 01:31:00,
2013-03-21 01:41:00,34.4,31.5,29.79,East,98,3.0,7.0,89,0.00,CLR,,0.00,0.0,WeatherDisplay:10.37,2013-03-21 01:41:00,
2013-03-21 01:46:00,34.3,31.7,29.79,East,96,5.0,8.0,90,0.00,CLR,,0.00,0.0,WeatherDisplay:10.37,2013-03-21 01:46:00,
2013-03-21 01:51:00,34.4,31.8,29.79,East,96,1.0,6.0,90,0.00,CLR,,0.00,0.0,WeatherDisplay:10.37,2013-03-21 01:51:00,
2013-03-21 02:01:00,34.3,31.7,29.79,East,96,0.0,4.0,90,0.00,CLR,,0.00,0.0,WeatherDisplay:10.37,2013-03-21 02:01:00,
2013-03-21 02:10:00,34.3,31.7,29.78,East,96,0.0,7.0,90,0.00,CLR,,0.00,0.0,WeatherDisplay:10.37,2013-03-21 02:10:00,
2013-03-21 02:15:00,34.3,31.7,29.78,East,96,0.0,2.0,90,0.00,CLR,,0.00,0.0,WeatherDisplay:10.37,2013-03-21 02:15:00,
2013-03-21 02:20:00,34.2,31.6,29.78,East,96,0.0,4.0,90,0.00,CLR,,0.00,0.0,WeatherDisplay:10.37,2013-03-21 02:20:00,
2013-03-21 02:30:00,34.3,31.9,29.78,East,95,2.0,5.0,91,0.00,CLR,,0.00,0.0,WeatherDisplay:10.37,2013-03-21 02:30:00,
2013-03-21 02:40:00,34.3,31.9,29.77,East,95,1.0,4.0,91,0.00,CLR,,0.00,0.0,WeatherDisplay:10.37,2013-03-21 02:40:00,
2013-03-21 02:45:00,34.3,32.0,29.77,East,95,2.0,5.0,91,0.00,CLR,,0.00,0.0,WeatherDisplay:10.37,2013-03-21 02:45:00,
2013-03-21 02:50:00,34.5,32.4,29.77,East,96,2.0,8.0,92,0.00,CLR,,0.00,0.0,WeatherDisplay:10.37,2013-03-21 02:50:00,
2013-03-21 02:55:00,34.6,32.5,29.77,East,96,1.0,6.0,92,0.00,CLR,,0.00,0.0,WeatherDisplay:10.37,2013-03-21 02:55:00,
2013-03-21 03:00:00,34.7,32.6,29.76,East,90,3.0,7.0,92,0.00,CLR,,0.00,0.0,WeatherDisplay:10.37,2013-03-21 03:00:00,
2013-03-21 03:10:00,34.9,32.8,29.76,NE,48,3.0,7.0,92,0.00,CLR,,0.00,0.0,WeatherDisplay:10.37,2013-03-21 03:10:00,
2013-03-21 03:15:00,35.0,32.9,29.75,NE,44,3.0,8.0,92,0.00,CLR,,0.00,0.0,WeatherDisplay:10.37,2013-03-21 03:15:00,
2013-03-21 03:20:00,35.1,33.0,29.75,NE,47,3.0,8.0,92,0.00,CLR,,0.00,0.0,WeatherDisplay:10.37,2013-03-21 03:20:00,
2013-03-21 03:30:00,35.2,33.1,29.75,NE,53,1.0,10.0,92,0.00,CLR,,0.00,0.0,WeatherDisplay:10.37,2013-03-21 03:30:00,
2013-03-21 03:35:00,35.4,33.5,29.75,NE,56,3.0,9.0,93,0.00,CLR,,0.00,0.0,WeatherDisplay:10.37,2013-03-21 03:35:00,
2013-03-21 03:40:00,35.5,33.7,29.74,ENE,60,2.0,8.0,93,0.00,CLR,,0.00,0.0,WeatherDisplay:10.37,2013-03-21 03:40:00,
2013-03-21 03:50:00,36.0,34.2,29.74,ENE,65,2.0,13.0,93,0.00,CLR,,0.00,0.0,WeatherDisplay:10.37,2013-03-21 03:50:00,
2013-03-21 04:00:00,36.4,34.5,29.74,East,85,2.0,9.0,93,0.00,CLR,,0.00,0.0,WeatherDisplay:10.37,2013-03-21 04:00:00,
2013-03-21 04:05:00,36.6,34.8,29.74,East,83,3.0,13.0,93,0.00,CLR,,0.00,0.0,WeatherDisplay:10.37,2013-03-21 04:05:00,
2013-03-21 04:10:00,36.7,34.9,29.74,East,87,2.0,12.0,93,0.00,CLR,,0.00,0.0,WeatherDisplay:10.37,2013-03-21 04:10:00,
2013-03-21 04:15:00,36.9,34.8,29.74,ENE,77,2.0,8.0,92,0.00,CLR,,0.00,0.0,WeatherDisplay:10.37,2013-03-21 04:15:00,
2013-03-21 04:20:00,36.9,34.8,29.74,ENE,74,3.0,12.0,92,0.00,CLR,,0.00,0.0,WeatherDisplay:10.37,2013-03-21 04:20:00,
2013-03-21 04:30:00,37.1,35.0,29.74,ENE,78,6.0,13.0,92,0.00,CLR,,0.00,0.0,WeatherDisplay:10.37,2013-03-21 04:30:00,
2013-03-21 04:40:00,37.2,35.1,29.74,ENE,64,5.0,8.0,92,0.00,CLR,,0.00,0.0,WeatherDisplay:10.37,2013-03-21 04:40:00,
2013-03-21 04:45:00,37.3,35.2,29.74,ENE,61,3.0,12.0,92,0.00,CLR,,0.00,0.0,WeatherDisplay:10.37,2013-03-21 04:45:00,
2013-03-21 04:50:00,37.4,35.3,29.74,ENE,62,7.0,12.0,92,0.00,CLR,,0.00,0.0,WeatherDisplay:10.37,2013-03-21 04:50:00,
2013-03-21 05:00:00,37.6,35.5,29.73,ENE,66,2.0,13.0,92,0.00,CLR,,0.00,0.0,WeatherDisplay:10.37,2013-03-21 05:00:00,
2013-03-21 05:10:00,37.9,35.8,29.73,ENE,70,2.0,12.0,92,0.00,CLR,,0.00,0.0,WeatherDisplay:10.37,2013-03-21 05:10:00,
2013-03-21 05:15:00,38.0,35.9,29.74,ENE,61,2.0,10.0,92,0.00,CLR,,0.00,0.0,WeatherDisplay:10.37,2013-03-21 05:15:00,
2013-03-21 05:20:00,38.1,36.0,29.73,ENE,57,2.0,8.0,92,0.00,CLR,,0.00,0.0,WeatherDisplay:10.37,2013-03-21 05:20:00,
2013-03-21 05:30:00,38.3,36.2,29.73,ENE,65,3.0,12.0,92,0.00,CLR,,0.00,0.0,WeatherDisplay:10.37,2013-03-21 05:30:00,
2013-03-21 05:40:00,38.5,36.4,29.72,ENE,59,3.0,10.0,92,0.00,CLR,,0.00,0.0,WeatherDisplay:10.37,2013-03-21 05:40:00,
2013-03-21 05:45:00,38.6,36.2,29.72,ENE,60,3.0,12.0,91,0.00,CLR,,0.00,0.0,WeatherDisplay:10.37,2013-03-21 05:45:00,
2013-03-21 05:50:00,38.7,36.3,29.72,ENE,60,5.0,14.0,91,0.00,CLR,,0.00,0.0,WeatherDisplay:10.37,2013-03-21 05:50:00,
2013-03-21 05:56:00,38.7,36.3,29.72,NE,54,6.0,13.0,91,0.00,CLR,,0.00,0.0,WeatherDisplay:10.37,2013-03-21 05:56:00,
2013-03-21 06:00:00,38.8,36.4,29.72,NE,55,2.0,12.0,91,0.00,CLR,,0.00,0.0,WeatherDisplay:10.37,2013-03-21 06:00:00,
2013-03-21 06:10:00,39.0,36.6,29.72,ENE,71,1.0,12.0,91,0.00,OVC,,0.00,0.0,WeatherDisplay:10.37,2013-03-21 06:10:00,
2013-03-21 06:21:00,39.2,36.8,29.71,NE,53,3.0,14.0,91,0.00,OVC,,0.00,0.0,WeatherDisplay:10.37,2013-03-21 06:21:00,
2013-03-21 06:25:00,39.3,36.9,29.72,NE,56,5.0,12.0,91,0.00,OVC,,0.00,0.0,WeatherDisplay:10.37,2013-03-21 06:25:00,
2013-03-21 06:31:00,39.4,36.7,29.72,NE,51,5.0,12.0,90,0.00,OVC,,0.00,0.0,WeatherDisplay:10.37,2013-03-21 06:31:00,
2013-03-21 06:41:00,39.4,36.7,29.72,ENE,64,5.0,13.0,90,0.00,OVC,,0.00,0.0,WeatherDisplay:10.37,2013-03-21 06:41:00,
2013-03-21 06:51:00,39.5,36.5,29.72,NE,46,6.0,15.0,89,0.00,OVC,,0.00,0.0,WeatherDisplay:10.37,2013-03-21 06:51:00,
2013-03-21 07:01:00,39.5,36.5,29.71,NE,52,5.0,12.0,89,0.00,OVC,,0.00,0.0,WeatherDisplay:10.37,2013-03-21 07:01:00,
2013-03-21 07:11:00,39.5,36.6,29.71,ENE,68,9.0,17.0,89,0.00,OVC,,0.00,0.0,WeatherDisplay:10.37,2013-03-21 07:11:00,
2013-03-21 07:21:00,39.5,36.6,29.71,ENE,60,7.0,20.0,89,0.00,BKN,,0.00,5.0,WeatherDisplay:10.37,2013-03-21 07:21:00,
2013-03-21 07:31:00,39.5,36.5,29.71,NE,54,7.0,15.0,89,0.00,BKN,,0.00,5.0,WeatherDisplay:10.37,2013-03-21 07:31:00,
2013-03-21 07:41:00,39.6,36.6,29.70,NE,50,6.0,15.0,89,0.00,BKN,,0.00,11.0,WeatherDisplay:10.37,2013-03-21 07:41:00,
2013-03-21 07:51:00,39.6,36.6,29.70,ENE,58,3.0,12.0,89,0.00,BKN,,0.00,18.0,WeatherDisplay:10.37,2013-03-21 07:51:00,
2013-03-21 08:01:00,39.8,36.8,29.70,NE,55,5.0,15.0,89,0.00,BKN,,0.00,23.0,WeatherDisplay:10.37,2013-03-21 08:01:00,
2013-03-21 08:11:00,39.9,37.0,29.68,NE,52,7.0,15.0,89,0.00,BKN,,0.00,39.0,WeatherDisplay:10.37,2013-03-21 08:11:00,
2013-03-21 08:16:00,40.1,37.1,29.68,ENE,62,6.0,16.0,89,0.00,BKN,,0.00,51.0,WeatherDisplay:10.37,2013-03-21 08:16:00,
2013-03-21 08:21:00,40.3,37.0,29.68,ENE,76,5.0,13.0,88,0.00,BKN,,0.00,58.0,WeatherDisplay:10.37,2013-03-21 08:21:00,
2013-03-21 08:31:00,40.6,37.3,29.68,East,82,6.0,16.0,88,0.00,BKN,,0.00,56.0,WeatherDisplay:10.37,2013-03-21 08:31:00,
2013-03-21 08:41:00,40.8,37.2,29.68,ENE,78,8.0,20.0,87,0.00,BKN,,0.00,49.0,WeatherDisplay:10.37,2013-03-21 08:41:00,
2013-03-21 08:46:00,40.9,37.3,29.68,ENE,77,3.0,12.0,87,0.00,BKN,,0.00,46.0,WeatherDisplay:10.37,2013-03-21 08:46:00,
2013-03-21 08:51:00,40.9,37.3,29.67,ENE,63,8.0,15.0,87,0.00,BKN,,0.00,54.0,WeatherDisplay:10.37,2013-03-21 08:51:00,
2013-03-21 09:01:00,41.0,37.4,29.67,ENE,57,6.0,14.0,87,0.00,BKN,,0.00,37.0,WeatherDisplay:10.37,2013-03-21 09:01:00,
2013-03-21 09:11:00,41.0,37.4,29.68,ENE,72,6.0,16.0,87,0.00,BKN,,0.00,28.0,WeatherDisplay:10.37,2013-03-21 09:11:00,
2013-03-21 09:16:00,41.0,37.4,29.68,ENE,70,6.0,13.0,87,0.00,BKN,,0.00,25.0,WeatherDisplay:10.37,2013-03-21 09:16:00,
2013-03-21 09:21:00,41.1,37.8,29.68,ENE,60,6.0,16.0,88,0.00,BKN,,0.00,32.0,WeatherDisplay:10.37,2013-03-21 09:21:00,
2013-03-21 09:31:00,41.3,37.7,29.68,East,82,6.0,15.0,87,0.00,BKN,,0.00,21.0,WeatherDisplay:10.37,2013-03-21 09:31:00,
2013-03-21 09:41:00,41.7,37.5,29.68,East,96,9.0,24.0,85,0.00,BKN,,0.00,28.0,WeatherDisplay:10.37,2013-03-21 09:41:00,
2013-03-21 09:46:00,41.9,37.7,29.68,East,83,9.0,21.0,85,0.00,BKN,,0.00,32.0,WeatherDisplay:10.37,2013-03-21 09:46:00,
2013-03-21 09:51:00,42.0,37.6,29.69,ENE,78,6.0,20.0,84,0.00,BKN,,0.00,32.0,WeatherDisplay:10.37,2013-03-21 09:51:00,
2013-03-21 10:01:00,42.3,37.5,29.68,ENE,74,9.0,22.0,83,0.00,BKN,,0.00,30.0,WeatherDisplay:10.37,2013-03-21 10:01:00,
2013-03-21 10:11:00,42.3,37.5,29.68,ENE,64,6.0,18.0,83,0.00,BKN,,0.00,35.0,WeatherDisplay:10.37,2013-03-21 10:11:00,
2013-03-21 10:21:00,42.4,37.6,29.68,East,81,8.0,16.0,83,0.00,BKN,,0.00,42.0,WeatherDisplay:10.37,2013-03-21 10:21:00,
2013-03-21 10:31:00,42.3,37.5,29.67,ENE,78,8.0,18.0,83,0.00,BKN,,0.00,46.0,WeatherDisplay:10.37,2013-03-21 10:31:00,
2013-03-21 10:46:00,42.3,37.5,29.68,East,80,8.0,23.0,83,0.00,BKN,,0.00,37.0,WeatherDisplay:10.37,2013-03-21 10:46:00,
2013-03-21 10:56:00,42.2,37.4,29.67,East,91,7.0,31.0,83,0.00,BKN,,0.00,46.0,WeatherDisplay:10.37,2013-03-21 10:56:00,
2013-03-21 11:01:00,42.2,37.5,29.67,East,96,10.0,21.0,83,0.00,BKN,,0.00,51.0,WeatherDisplay:10.37,2013-03-21 11:01:00,
2013-03-21 11:11:00,42.3,37.5,29.67,ENE,71,5.0,21.0,83,0.00,BKN,,0.00,67.0,WeatherDisplay:10.37,2013-03-21 11:11:00,
2013-03-21 11:26:00,42.4,37.6,29.67,East,83,9.0,21.0,83,0.00,BKN,,0.00,70.0,WeatherDisplay:10.37,2013-03-21 11:26:00,
2013-03-21 11:36:00,42.5,37.7,29.67,ENE,77,8.0,20.0,83,0.00,BKN,,0.00,51.0,WeatherDisplay:10.37,2013-03-21 11:36:00,
2013-03-21 11:46:00,42.4,37.3,29.66,East,83,6.0,18.0,82,0.00,BKN,,0.00,37.0,WeatherDisplay:10.37,2013-03-21 11:46:00,
2013-03-21 11:56:00,42.4,37.6,29.66,East,92,3.0,26.0,83,0.00,BKN,,0.00,70.0,WeatherDisplay:10.37,2013-03-21 11:56:00,
2013-03-21 12:21:00,42.3,37.5,29.66,East,100,10.0,22.0,83,0.00,BKN,,0.00,60.0,WeatherDisplay:10.37,2013-03-21 12:21:00,
2013-03-21 12:36:00,42.2,37.7,29.66,ENE,72,5.0,15.0,84,0.00,BKN,,0.00,65.0,WeatherDisplay:10.37,2013-03-21 12:36:00,
2013-03-21 12:51:00,41.9,37.7,29.65,East,80,10.0,20.0,85,0.00,BKN,,0.00,53.0,WeatherDisplay:10.37,2013-03-21 12:51:00,
2013-03-21 13:01:00,41.7,37.8,29.64,East,88,5.0,24.0,86,0.00,BKN,,0.00,42.0,WeatherDisplay:10.37,2013-03-21 13:01:00,
2013-03-21 13:11:00,41.5,37.6,29.64,East,86,7.0,20.0,86,0.01,RA,,0.01,53.0,WeatherDisplay:10.37,2013-03-21 13:11:00,
2013-03-21 13:26:00,41.4,37.8,29.63,East,82,7.0,20.0,87,0.00,BKN,,0.01,56.0,WeatherDisplay:10.37,2013-03-21 13:26:00,
2013-03-21 13:31:00,41.4,37.8,29.64,ENE,77,8.0,15.0,87,0.00,BKN,,0.01,40.0,WeatherDisplay:10.37,2013-03-21 13:31:00,
2013-03-21 14:06:00,40.6,37.9,29.62,ENE,72,8.0,18.0,90,0.01,RA,,0.03,39.0,WeatherDisplay:10.37,2013-03-21 14:06:00,
2013-03-21 14:11:00,40.5,37.8,29.61,ENE,66,9.0,15.0,90,0.00,RA,,0.03,42.0,WeatherDisplay:10.37,2013-03-21 14:11:00,
2013-03-21 14:21:00,40.3,37.6,29.60,ENE,59,7.0,18.0,90,0.00,BKN,,0.03,35.0,WeatherDisplay:10.37,2013-03-21 14:21:00,
2013-03-21 14:26:00,40.3,37.6,29.60,ENE,64,6.0,19.0,90,0.00,BKN,,0.03,37.0,WeatherDisplay:10.37,2013-03-21 14:26:00,
2013-03-21 14:41:00,40.0,37.6,29.60,ENE,67,5.0,12.0,91,0.01,RA,,0.05,25.0,WeatherDisplay:10.37,2013-03-21 14:41:00,
2013-03-21 14:56:00,39.7,37.3,29.59,ENE,63,5.0,15.0,91,0.00,BKN,,0.05,25.0,WeatherDisplay:10.37,2013-03-21 14:56:00,
2013-03-21 15:06:00,39.6,37.2,29.58,NE,56,7.0,16.0,91,0.00,OVC,,0.05,21.0,WeatherDisplay:10.37,2013-03-21 15:06:00,
2013-03-21 15:16:00,39.6,37.5,29.58,ENE,64,7.0,20.0,92,0.00,OVC,,0.05,23.0,WeatherDisplay:10.37,2013-03-21 15:16:00,
2013-03-21 15:21:00,39.6,37.5,29.57,ENE,67,7.0,20.0,92,0.00,OVC,,0.05,25.0,WeatherDisplay:10.37,2013-03-21 15:21:00,
2013-03-21 15:46:00,39.8,37.4,29.56,ENE,59,6.0,20.0,91,0.00,BKN,,0.05,25.0,WeatherDisplay:10.37,2013-03-21 15:46:00,
2013-03-21 15:51:00,39.8,37.4,29.56,ENE,57,6.0,17.0,91,0.00,BKN,,0.05,25.0,WeatherDisplay:10.37,2013-03-21 15:51:00,
2013-03-21 16:01:00,39.7,37.3,29.56,East,83,7.0,20.0,91,0.00,BKN,,0.05,28.0,WeatherDisplay:10.37,2013-03-21 16:01:00,
2013-03-21 16:21:00,39.6,37.2,29.55,ENE,64,6.0,21.0,91,0.00,BKN,,0.05,23.0,WeatherDisplay:10.37,2013-03-21 16:21:00,
2013-03-21 16:31:00,39.6,37.2,29.55,ENE,70,7.0,20.0,91,0.00,BKN,,0.05,16.0,WeatherDisplay:10.37,2013-03-21 16:31:00,
2013-03-21 16:36:00,39.6,37.2,29.55,ENE,60,7.0,17.0,91,0.00,BKN,,0.05,16.0,WeatherDisplay:10.37,2013-03-21 16:36:00,
2013-03-21 16:41:00,39.6,37.2,29.53,ENE,63,6.0,16.0,91,0.00,BKN,,0.05,16.0,WeatherDisplay:10.37,2013-03-21 16:41:00,
2013-03-21 16:51:00,39.5,37.1,29.52,ENE,70,8.0,17.0,91,0.00,BKN,,0.05,14.0,WeatherDisplay:10.37,2013-03-21 16:51:00,
2013-03-21 17:01:00,39.5,37.1,29.52,NE,56,7.0,17.0,91,0.00,BKN,,0.05,14.0,WeatherDisplay:10.37,2013-03-21 17:01:00,
2013-03-21 17:11:00,39.5,37.4,29.51,ENE,57,6.0,16.0,92,0.00,BKN,,0.05,12.0,WeatherDisplay:10.37,2013-03-21 17:11:00,
2013-03-21 17:21:00,39.6,37.5,29.50,ENE,61,12.0,20.0,92,0.00,BKN,,0.05,12.0,WeatherDisplay:10.37,2013-03-21 17:21:00,
2013-03-21 17:26:00,39.7,37.6,29.51,ENE,62,5.0,20.0,92,0.00,BKN,,0.05,9.0,WeatherDisplay:10.37,2013-03-21 17:26:00,
2013-03-21 17:31:00,39.8,37.6,29.50,ENE,62,8.0,21.0,92,0.00,BKN,,0.05,9.0,WeatherDisplay:10.37,2013-03-21 17:31:00,
2013-03-21 17:36:00,39.9,37.7,29.50,ENE,72,5.0,18.0,92,0.00,OVC,,0.05,7.0,WeatherDisplay:10.37,2013-03-21 17:36:00,
2013-03-21 18:01:00,40.4,38.0,29.50,ENE,61,6.0,14.0,91,0.00,OVC,,0.05,0.0,WeatherDisplay:10.37,2013-03-21 18:01:00,
2013-03-21 18:06:00,40.5,38.1,29.49,ENE,62,7.0,14.0,91,0.00,OVC,,0.05,0.0,WeatherDisplay:10.37,2013-03-21 18:06:00,
2013-03-21 18:11:00,40.5,38.1,29.49,ENE,61,9.0,23.0,91,0.00,OVC,,0.05,0.0,WeatherDisplay:10.37,2013-03-21 18:11:00,
2013-03-21 18:21:00,40.6,37.9,29.49,ENE,59,9.0,21.0,90,0.00,OVC,,0.05,0.0,WeatherDisplay:10.37,2013-03-21 18:21:00,
2013-03-21 18:31:00,40.7,38.0,29.48,NE,55,8.0,20.0,90,0.00,OVC,,0.05,0.0,WeatherDisplay:10.37,2013-03-21 18:31:00,
2013-03-21 18:41:00,40.7,38.0,29.47,ENE,65,6.0,18.0,90,0.00,OVC,,0.05,0.0,WeatherDisplay:10.37,2013-03-21 18:41:00,
2013-03-21 18:46:00,40.6,37.9,29.47,NE,55,9.0,23.0,90,0.01,RA,,0.05,0.0,WeatherDisplay:10.37,2013-03-21 18:46:00,
2013-03-21 18:51:00,40.6,37.9,29.47,ENE,64,8.0,22.0,90,0.00,RA,,0.05,0.0,WeatherDisplay:10.37,2013-03-21 18:51:00,
2013-03-21 19:01:00,40.5,37.8,29.46,ENE,63,10.0,23.0,90,0.00,CLR,,0.05,0.0,WeatherDisplay:10.37,2013-03-21 19:01:00,
2013-03-21 19:16:00,40.3,37.9,29.45,ENE,63,8.0,20.0,91,0.01,RA,,0.06,0.0,WeatherDisplay:10.37,2013-03-21 19:16:00,
2013-03-21 19:26:00,40.1,38.0,29.45,NE,56,9.0,23.0,92,0.01,RA,,0.07,0.0,WeatherDisplay:10.37,2013-03-21 19:26:00,
2013-03-21 19:31:00,40.0,37.9,29.45,ENE,60,8.0,24.0,92,0.01,RA,,0.08,0.0,WeatherDisplay:10.37,2013-03-21 19:31:00,
2013-03-21 19:41:00,39.9,38.0,29.44,ENE,62,7.0,18.0,93,0.01,RA,,0.09,0.0,WeatherDisplay:10.37,2013-03-21 19:41:00,
2013-03-21 19:46:00,39.9,38.0,29.43,ENE,58,12.0,20.0,93,0.01,RA,,0.09,0.0,WeatherDisplay:10.37,2013-03-21 19:46:00,
2013-03-21 19:51:00,39.9,38.0,29.43,ENE,62,8.0,20.0,93,0.00,RA,,0.09,0.0,WeatherDisplay:10.37,2013-03-21 19:51:00,
2013-03-21 20:01:00,40.0,38.1,29.42,NE,55,9.0,20.0,93,0.01,RA,,0.11,0.0,WeatherDisplay:10.37,2013-03-21 20:01:00,
2013-03-21 20:11:00,40.1,38.2,29.42,ENE,58,8.0,20.0,93,0.01,RA,,0.12,0.0,WeatherDisplay:10.37,2013-03-21 20:11:00,
2013-03-21 20:16:00,40.1,38.5,29.41,ENE,62,9.0,21.0,94,0.01,RA,,0.13,0.0,WeatherDisplay:10.37,2013-03-21 20:16:00,
2013-03-21 20:26:00,40.2,38.6,29.41,ENE,64,8.0,20.0,94,0.02,RA,,0.14,0.0,WeatherDisplay:10.37,2013-03-21 20:26:00,
2013-03-21 20:31:00,40.2,38.6,29.41,ENE,76,8.0,20.0,94,0.01,RA,,0.15,0.0,WeatherDisplay:10.37,2013-03-21 20:31:00,
2013-03-21 20:46:00,40.3,38.7,29.40,NE,56,2.0,20.0,94,0.01,RA,,0.18,0.0,WeatherDisplay:10.37,2013-03-21 20:46:00,
2013-03-21 20:56:00,40.3,38.7,29.39,ENE,59,9.0,20.0,94,0.01,RA,,0.20,0.0,WeatherDisplay:10.37,2013-03-21 20:56:00,
2013-03-21 21:01:00,40.4,38.8,29.39,ENE,59,6.0,18.0,94,0.01,RA,,0.20,0.0,WeatherDisplay:10.37,2013-03-21 21:01:00,
2013-03-21 21:11:00,40.4,38.8,29.38,ENE,61,8.0,17.0,94,0.01,RA,,0.21,0.0,WeatherDisplay:10.37,2013-03-21 21:11:00,
2013-03-21 21:21:00,40.4,38.8,29.38,ENE,70,8.0,20.0,94,0.00,RA,,0.22,0.0,WeatherDisplay:10.37,2013-03-21 21:21:00,
2013-03-21 21:27:00,40.4,38.8,29.38,ENE,78,7.0,20.0,94,0.01,RA,,0.23,0.0,WeatherDisplay:10.37,2013-03-21 21:27:00,
2013-03-21 21:36:00,40.4,38.8,29.38,ENE,77,7.0,15.0,94,0.01,RA,,0.24,0.0,WeatherDisplay:10.37,2013-03-21 21:36:00,
2013-03-21 21:41:00,40.5,38.9,29.38,ENE,78,10.0,28.0,94,0.01,RA,,0.25,0.0,WeatherDisplay:10.37,2013-03-21 21:41:00,
2013-03-21 21:47:00,40.5,38.9,29.39,ENE,70,9.0,18.0,94,0.01,RA,,0.26,0.0,WeatherDisplay:10.37,2013-03-21 21:47:00,
2013-03-21 22:06:00,40.5,38.9,29.38,East,90,6.0,20.0,94,0.00,RA,,0.28,0.0,WeatherDisplay:10.37,2013-03-21 22:06:00,
2013-03-21 22:16:00,40.6,39.0,29.38,East,84,5.0,22.0,94,0.01,RA,,0.28,0.0,WeatherDisplay:10.37,2013-03-21 22:16:00,
2013-03-21 22:31:00,40.7,39.4,29.37,ENE,77,7.0,21.0,95,0.00,CLR,,0.28,0.0,WeatherDisplay:10.37,2013-03-21 22:31:00,
2013-03-21 22:41:00,40.9,39.6,29.36,East,81,6.0,23.0,95,0.00,CLR,,0.28,0.0,WeatherDisplay:10.37,2013-03-21 22:41:00,
2013-03-21 22:46:00,40.9,39.6,29.36,East,89,8.0,20.0,95,0.01,RA,,0.29,0.0,WeatherDisplay:10.37,2013-03-21 22:46:00,
2013-03-21 22:51:00,41.0,39.7,29.36,East,99,8.0,21.0,95,0.00,RA,,0.29,0.0,WeatherDisplay:10.37,2013-03-21 22:51:00,
2013-03-21 23:01:00,41.1,39.7,29.36,East,99,7.0,24.0,95,0.00,CLR,,0.29,0.0,WeatherDisplay:10.37,2013-03-21 23:01:00,
2013-03-21 23:16:00,41.2,39.8,29.35,East,98,10.0,18.0,95,0.00,RA,,0.30,0.0,WeatherDisplay:10.37,2013-03-21 23:16:00,
2013-03-21 23:21:00,41.2,39.9,29.35,East,101,12.0,20.0,95,0.00,,,0.30,0.0,WeatherDisplay:10.37,2013-03-21 23:21:00,
2013-03-21 23:31:00,41.4,40.0,29.35,East,90,10.0,25.0,95,0.00,RA,,0.31,0.0,WeatherDisplay:10.37,2013-03-21 23:31:00,
2013-03-21 23:41:00,41.5,40.2,29.34,East,96,9.0,22.0,95,0.00,CLR,,0.31,0.0,WeatherDisplay:10.37,2013-03-21 23:41:00,
2013-03-21 23:56:00,41.8,40.5,29.34,East,98,10.0,21.0,95,0.00,CLR,,0.31,0.0,WeatherDisplay:10.37,2013-03-21 23:56:00,